Portada
METAR-TAF:

METAR-TAF

Aeropuertos :

Aeropuerto de Hihifo

Wallis, Francia

latitud: 13-14S, longitud: 176-10W, altitud: 23 m

Observación

El informe se hizo hace 4 horas y 8 minutos, a las 05:00 UTC
Viento 3 kt del suroeste, variando entre sur-sureste y oeste
Temperatura 31°C
Humedad 71%
Presión 1007 hPa
Visibilidad 10 km o más

METAR: NLWW 180500Z AUTO 22003KT 150V260 9999 NCD 31/25 Q1007 NOSIG

Hora: 21:08 (09:08 UTC)

Pronóstico

El informe se hizo hace 4 horas y 8 minutos, a las 05:00 UTC
Pronóstico válido del 18 a las 06 UTC al 19 a las 06 UTC
Viento 5 kt del oeste-suroeste
Visibilidad 10 km o más
Escasas nubes a una altura de 2000 ft
Probabilidad 40% :
Temporalmente
del 18 a las 12 UTC al 18 a las 20 UTC
Visibilidad: 4000 m
Nubes dispersas a una altura de 2000 ft, Cumulus congestus.
chaparrones de lluvia

TAF: NLWW 180500Z 1806/1906 25005KT 9999 FEW020 PROB40 TEMPO 1812/1820 4000 SHRA SCT020TCU

Observaciones y pronósticos meteorológicos de más de 4000 aeropuertos (mensajes METAR y TAF).

Los puntos amarillos y rojos representan las estaciones disponibles.

Ponga el ratón en el punto deseado para ver el nombre de la estación.

Haga clic para ver las observaciones y los pronósticos meteorológicos.

Para cambiar el mapa : haga clic en los botones verdes con una cruz de color negro para hacer un zoom, en el botón verde con un guión para alejar o en las flechas verdes para mapas adyacentes.


METAR-TAF: